Time;durP1;ratioP1;P1;durP2;ratioP2;P2;SDS_P1;SDS_P2;PMS_P1;PMS_P2;Temp;Humidity;BMP_temperature;BMP_pressure;BME280_temperature;BME280_humidity;BME280_pressure;Samples;Min_cycle;Max_cycle;Signal;HPM_P1;HPM_P2
2023/03/24 00:01:40;;;;;;;7.88;2.88;;;10.30;95.70;;;;;;5046814;28;20068;-73
2023/03/24 00:04:06;;;;;;;6.07;2.50;;;10.30;95.50;;;;;;5048648;28;20479;-76
2023/03/24 00:06:33;;;;;;;6.45;2.58;;;10.30;95.60;;;;;;5038155;28;20245;-76
2023/03/24 00:08:59;;;;;;;6.15;3.05;;;10.20;95.80;;;;;;5049746;28;20492;-75
2023/03/24 00:11:25;;;;;;;6.70;2.90;;;10.10;96.10;;;;;;5051339;28;20033;-76
2023/03/24 00:13:51;;;;;;;13.48;3.25;;;10.10;96.30;;;;;;5051480;28;20513;-74
2023/03/24 00:16:18;;;;;;;8.88;2.70;;;10.20;96.10;;;;;;5051112;28;20496;-75
2023/03/24 00:18:44;;;;;;;8.90;2.60;;;10.10;96.20;;;;;;5048888;28;20091;-76
2023/03/24 00:21:12;;;;;;;7.32;2.95;;;10.10;96.50;;;;;;5050759;28;20443;-75
2023/03/24 00:23:41;;;;;;;9.15;3.15;;;10.10;96.40;;;;;;5049285;28;20051;-76
2023/03/24 00:26:14;;;;;;;6.72;2.92;;;10.10;96.50;;;;;;5050417;28;20112;-76
2023/03/24 00:28:41;;;;;;;10.77;3.53;;;10.00;96.70;;;;;;5051474;28;20361;-75
2023/03/24 00:31:07;;;;;;;7.32;3.30;;;10.00;96.90;;;;;;5049477;28;20393;-75
2023/03/24 00:33:34;;;;;;;6.45;2.90;;;10.00;96.90;;;;;;5042016;28;20040;-74
2023/03/24 00:36:05;;;;;;;13.25;3.60;;;10.00;97.10;;;;;;5046599;28;20033;-74
2023/03/24 00:38:33;;;;;;;10.23;3.47;;;10.00;97.20;;;;;;5039327;28;20036;-75
2023/03/24 00:40:59;;;;;;;9.48;3.80;;;9.90;97.30;;;;;;5051760;28;20036;-76
2023/03/24 00:43:24;;;;;;;8.70;3.50;;;9.90;97.50;;;;;;5052989;28;20108;-72
2023/03/24 00:46:04;;;;;;;7.55;3.22;;;9.90;97.60;;;;;;5046367;28;20048;-75
2023/03/24 00:48:31;;;;;;;7.85;3.35;;;9.90;97.60;;;;;;5034880;28;20036;-75
2023/03/24 00:50:59;;;;;;;9.02;3.15;;;9.80;97.70;;;;;;5039485;28;20037;-75
2023/03/24 00:53:28;;;;;;;7.65;3.13;;;9.80;97.80;;;;;;5046774;28;20385;-74
2023/03/24 00:55:54;;;;;;;9.82;3.38;;;9.80;98.00;;;;;;5049446;28;20482;-75
2023/03/24 00:58:20;;;;;;;8.43;3.25;;;9.80;98.00;;;;;;5046298;28;20160;-76
2023/03/24 01:00:48;;;;;;;8.27;3.28;;;9.80;98.10;;;;;;5049516;28;20127;-75
2023/03/24 01:03:14;;;;;;;8.02;3.38;;;9.80;98.10;;;;;;5049250;28;20486;-75
2023/03/24 01:05:41;;;;;;;7.38;3.25;;;9.70;98.20;;;;;;5043590;28;20126;-75
2023/03/24 01:08:08;;;;;;;9.25;3.30;;;9.70;98.30;;;;;;5043883;28;20457;-74
2023/03/24 01:10:49;;;;;;;9.43;3.63;;;9.70;98.30;;;;;;5049316;28;20056;-75
2023/03/24 01:13:15;;;;;;;;;;;9.70;98.30;;;;;;5045441;28;20470;-75
2023/03/24 01:15:41;;;;;;;8.88;3.03;;;9.70;98.30;;;;;;5050593;28;19966;-75
2023/03/24 01:18:08;;;;;;;7.28;2.67;;;9.70;98.40;;;;;;5048682;28;20049;-76
2023/03/24 01:20:35;;;;;;;7.53;3.30;;;9.70;98.30;;;;;;5045682;28;20108;-76
2023/03/24 01:23:04;;;;;;;7.78;3.25;;;9.70;98.20;;;;;;5033389;28;21602;-73
2023/03/24 01:25:29;;;;;;;12.18;3.83;;;9.70;98.20;;;;;;5044486;28;20032;-75
2023/03/24 01:27:55;;;;;;;9.75;3.35;;;9.70;98.30;;;;;;5042639;28;20037;-75
2023/03/24 01:30:25;;;;;;;9.52;3.50;;;9.70;98.40;;;;;;5042209;28;20043;-74
2023/03/24 01:32:51;;;;;;;9.02;3.30;;;9.70;98.50;;;;;;5050166;28;20033;-75
2023/03/24 01:35:18;;;;;;;9.68;3.55;;;9.70;98.40;;;;;;5046491;28;20035;-76
2023/03/24 01:37:43;;;;;;;8.35;3.25;;;9.70;98.40;;;;;;5044664;28;20029;-74
2023/03/24 01:40:16;;;;;;;7.38;3.10;;;9.70;98.40;;;;;;5041405;28;20083;-76
2023/03/24 01:42:42;;;;;;;10.27;3.60;;;9.70;98.30;;;;;;5051632;28;20393;-75
2023/03/24 01:45:41;;;;;;;7.35;3.13;;;9.70;98.40;;;;;;5048005;28;20037;-75
2023/03/24 01:48:15;;;;;;;8.05;3.80;;;9.70;98.40;;;;;;5042619;28;20102;-75
2023/03/24 01:50:45;;;;;;;10.50;3.38;;;9.60;98.60;;;;;;5046874;28;20033;-74
2023/03/24 01:53:11;;;;;;;10.23;3.63;;;9.70;98.60;;;;;;5046500;28;20033;-75
2023/03/24 01:55:36;;;;;;;8.20;3.30;;;9.60;98.60;;;;;;5048977;28;20025;-76
2023/03/24 01:58:02;;;;;;;12.23;3.97;;;9.60;98.70;;;;;;5049772;28;20037;-75
2023/03/24 02:00:29;;;;;;;9.55;3.42;;;9.60;98.80;;;;;;5048894;28;20061;-76
2023/03/24 02:03:02;;;;;;;7.15;3.72;;;9.60;98.90;;;;;;5049464;28;20500;-74
2023/03/24 02:05:32;;;;;;;10.63;3.80;;;9.60;98.90;;;;;;5044211;28;20029;-76
2023/03/24 02:08:14;;;;;;;7.80;3.28;;;9.60;98.90;;;;;;5044559;28;20040;-75
2023/03/24 02:10:39;;;;;;;8.98;3.33;;;9.60;99.00;;;;;;5052421;28;20501;-75
2023/03/24 02:13:06;;;;;;;10.45;3.55;;;9.60;99.00;;;;;;5052402;28;20098;-76
2023/03/24 02:15:40;;;;;;;6.82;3.50;;;9.60;99.10;;;;;;5053506;28;20021;-75
2023/03/24 02:18:17;;;;;;;9.43;3.65;;;9.60;99.10;;;;;;5051111;28;20031;-74
2023/03/24 02:21:17;;;;;;;11.38;4.15;;;9.60;99.10;;;;;;5051730;28;20041;-75
2023/03/24 02:24:07;;;;;;;10.45;3.45;;;9.60;99.20;;;;;;5051850;28;20037;-75
2023/03/24 02:26:46;;;;;;;6.90;3.40;;;9.50;99.20;;;;;;5044921;28;20025;-74
2023/03/24 02:29:21;;;;;;;7.70;3.05;;;9.60;99.40;;;;;;5050517;28;20052;-75
2023/03/24 02:32:25;;;;;;;6.90;3.42;;;9.60;99.40;;;;;;5048067;28;20079;-76
2023/03/24 02:35:34;;;;;;;9.05;3.90;;;9.60;99.50;;;;;;5048707;28;20048;-75
2023/03/24 02:38:20;;;;;;;8.25;3.63;;;9.60;99.60;;;;;;5043522;28;20044;-75
2023/03/24 02:41:12;;;;;;;12.73;3.67;;;9.60;99.60;;;;;;5048460;28;20025;-75
2023/03/24 02:44:18;;;;;;;10.85;3.97;;;9.60;99.60;;;;;;5048503;28;20060;-75
2023/03/24 02:46:51;;;;;;;10.23;3.53;;;9.60;99.70;;;;;;5046342;28;20060;-74
2023/03/24 02:49:35;;;;;;;9.35;3.72;;;9.60;99.70;;;;;;5035702;28;20025;-75
2023/03/24 02:52:06;;;;;;;11.43;4.20;;;9.60;99.80;;;;;;5050413;28;20127;-75
2023/03/24 02:55:00;;;;;;;9.05;3.97;;;9.60;99.80;;;;;;5050096;28;20492;-75
2023/03/24 02:57:32;;;;;;;9.32;3.80;;;9.70;99.80;;;;;;5040835;28;20052;-75
2023/03/24 03:00:18;;;;;;;11.60;4.82;;;9.70;99.80;;;;;;5051870;28;20579;-75
2023/03/24 03:02:50;;;;;;;11.15;4.10;;;9.70;99.80;;;;;;5048366;28;20024;-75
2023/03/24 03:05:28;;;;;;;12.07;4.22;;;9.70;99.90;;;;;;5045616;28;20462;-75
2023/03/24 03:07:57;;;;;;;10.02;4.40;;;9.70;99.90;;;;;;5044866;28;20072;-76
2023/03/24 03:10:26;;;;;;;14.40;4.10;;;9.70;99.80;;;;;;5049058;28;20531;-76
2023/03/24 03:12:56;;;;;;;12.93;4.72;;;9.70;99.90;;;;;;5043204;28;20036;-76
2023/03/24 03:15:26;;;;;;;13.73;4.60;;;9.70;99.90;;;;;;5045708;28;20029;-75
2023/03/24 03:17:57;;;;;;;8.30;4.57;;;9.70;99.90;;;;;;5050922;28;20036;-75
2023/03/24 03:20:24;;;;;;;10.20;4.53;;;9.70;99.90;;;;;;5039672;28;20041;-76
2023/03/24 03:22:59;;;;;;;11.90;4.47;;;9.70;99.90;;;;;;5043673;28;20036;-75
2023/03/24 03:25:29;;;;;;;11.88;4.38;;;9.80;99.90;;;;;;5049750;28;20037;-76
2023/03/24 03:28:01;;;;;;;18.27;5.60;;;9.80;99.90;;;;;;5050348;28;20029;-74
2023/03/24 03:30:38;;;;;;;9.15;4.35;;;9.80;99.90;;;;;;5050032;28;20054;-75
2023/03/24 03:33:36;;;;;;;12.73;4.72;;;9.80;99.90;;;;;;5048300;28;20406;-76
2023/03/24 03:36:27;;;;;;;12.88;4.57;;;9.90;99.90;;;;;;5026933;28;20038;-74
2023/03/24 03:39:17;;;;;;;14.00;5.43;;;9.80;99.90;;;;;;5039918;28;20037;-75
2023/03/24 03:41:43;;;;;;;7.50;4.50;;;9.90;99.90;;;;;;5043470;28;20315;-75
2023/03/24 03:44:09;;;;;;;9.32;5.00;;;9.90;99.90;;;;;;5046314;28;20064;-74
2023/03/24 03:46:35;;;;;;;10.00;4.75;;;9.90;99.90;;;;;;5045196;28;20033;-77
2023/03/24 03:49:02;;;;;;;13.43;5.20;;;9.90;99.90;;;;;;5036380;28;20056;-75
2023/03/24 03:51:27;;;;;;;10.35;4.38;;;10.00;99.90;;;;;;5047335;28;20033;-75
2023/03/24 03:53:58;;;;;;;8.40;4.90;;;10.00;99.90;;;;;;5047920;28;20029;-75
2023/03/24 03:56:26;;;;;;;10.47;4.93;;;10.00;99.90;;;;;;5046199;28;20068;-75
2023/03/24 03:58:52;;;;;;;13.80;4.80;;;10.00;99.90;;;;;;5045116;28;20033;-75
2023/03/24 04:01:23;;;;;;;10.38;5.38;;;10.10;99.90;;;;;;5047851;28;20037;-73
2023/03/24 04:04:09;;;;;;;9.73;4.57;;;10.10;99.90;;;;;;5045093;28;20025;-75
2023/03/24 04:06:57;;;;;;;9.45;4.90;;;10.10;99.90;;;;;;5041271;28;20035;-75
2023/03/24 04:09:42;;;;;;;12.32;5.07;;;10.10;99.90;;;;;;5049253;28;20028;-74
2023/03/24 04:12:44;;;;;;;8.40;4.47;;;10.10;99.90;;;;;;5047201;28;20040;-76
2023/03/24 04:15:52;;;;;;;9.68;4.57;;;10.10;99.90;;;;;;5043853;28;20061;-75
2023/03/24 04:18:41;;;;;;;9.23;4.22;;;10.10;99.90;;;;;;5045250;28;20431;-76
2023/03/24 04:21:11;;;;;;;9.35;5.28;;;10.20;99.90;;;;;;5022197;28;20471;-75
2023/03/24 04:23:54;;;;;;;12.05;4.80;;;10.20;99.90;;;;;;5048186;28;20032;-75
2023/03/24 04:26:44;;;;;;;8.60;4.72;;;10.20;99.90;;;;;;5045241;28;20197;-74
2023/03/24 04:29:36;;;;;;;8.63;4.83;;;10.20;99.90;;;;;;5046976;28;20057;-75
2023/03/24 04:32:19;;;;;;;9.05;4.90;;;10.20;99.90;;;;;;5020139;28;20120;-73
2023/03/24 04:34:49;;;;;;;7.40;4.88;;;10.20;99.90;;;;;;5046828;28;20033;-75
2023/03/24 04:37:19;;;;;;;7.78;4.70;;;10.20;99.90;;;;;;5033939;28;20044;-75
2023/03/24 04:39:48;;;;;;;10.68;4.95;;;10.20;99.90;;;;;;5040010;28;20438;-75
2023/03/24 04:42:20;;;;;;;9.63;4.07;;;10.30;99.90;;;;;;5044332;28;20029;-76
2023/03/24 04:44:50;;;;;;;10.43;4.57;;;10.20;99.90;;;;;;5046683;28;20025;-74
2023/03/24 04:47:19;;;;;;;11.75;4.97;;;10.20;99.90;;;;;;5044717;28;20021;-75
2023/03/24 04:49:44;;;;;;;10.95;4.68;;;10.30;99.90;;;;;;5040225;28;20117;-75
2023/03/24 04:52:10;;;;;;;12.25;4.80;;;10.30;99.90;;;;;;5047504;28;20182;-76
2023/03/24 04:54:35;;;;;;;11.77;5.45;;;10.30;99.90;;;;;;5045969;28;20033;-75
2023/03/24 04:57:01;;;;;;;10.43;4.40;;;10.40;99.90;;;;;;5050398;28;20029;-73
2023/03/24 04:59:28;;;;;;;7.55;4.65;;;10.30;99.90;;;;;;5034532;28;20028;-75
2023/03/24 05:01:54;;;;;;;8.63;4.45;;;10.30;99.90;;;;;;5049095;28;20040;-76
2023/03/24 05:04:22;;;;;;;7.95;4.70;;;10.40;99.90;;;;;;5048412;28;20036;-75
2023/03/24 05:06:51;;;;;;;9.02;4.50;;;10.40;99.90;;;;;;5038054;28;20115;-75
2023/03/24 05:09:20;;;;;;;6.88;3.97;;;10.40;99.90;;;;;;5049559;28;20095;-75
2023/03/24 05:11:46;;;;;;;11.05;5.13;;;10.40;99.90;;;;;;5046456;28;20116;-76
2023/03/24 05:14:11;;;;;;;9.25;4.60;;;10.40;99.90;;;;;;5048742;28;20171;-75
2023/03/24 05:16:37;;;;;;;10.50;4.95;;;10.50;99.90;;;;;;5049980;28;20025;-76
2023/03/24 05:19:03;;;;;;;7.55;4.80;;;10.50;99.90;;;;;;5050331;28;20131;-75
2023/03/24 05:21:29;;;;;;;7.97;4.50;;;10.50;99.90;;;;;;5048233;28;20025;-75
2023/03/24 05:23:55;;;;;;;10.25;4.43;;;10.50;99.90;;;;;;5047784;28;20496;-75
2023/03/24 05:26:20;;;;;;;8.70;5.15;;;10.50;99.90;;;;;;5050181;28;20180;-74
2023/03/24 05:28:46;;;;;;;8.52;4.60;;;10.60;99.90;;;;;;5050972;28;20037;-77
2023/03/24 05:31:11;;;;;;;7.68;4.00;;;10.60;99.90;;;;;;5046795;28;20033;-82
2023/03/24 05:33:37;;;;;;;7.57;4.30;;;10.50;99.90;;;;;;5061191;28;20036;-78
2023/03/24 05:36:03;;;;;;;7.35;3.97;;;10.60;99.90;;;;;;5053744;28;20529;-72
2023/03/24 05:38:28;;;;;;;6.93;4.22;;;10.60;99.90;;;;;;5047886;28;20025;-73
2023/03/24 05:40:58;;;;;;;7.38;4.40;;;10.60;99.90;;;;;;5040399;28;20025;-80
2023/03/24 05:43:24;;;;;;;9.18;4.55;;;10.60;99.90;;;;;;5051441;28;20961;-75
2023/03/24 05:45:49;;;;;;;9.65;4.63;;;10.60;99.90;;;;;;5051816;28;20029;-80
2023/03/24 05:48:15;;;;;;;9.13;4.68;;;10.70;99.90;;;;;;5051227;28;20090;-80
2023/03/24 05:50:40;;;;;;;9.60;4.80;;;10.70;99.90;;;;;;5052142;28;20107;-79
2023/03/24 05:53:06;;;;;;;7.90;3.92;;;10.60;99.90;;;;;;5042427;28;20036;-76
2023/03/24 05:55:31;;;;;;;8.43;4.47;;;10.70;99.90;;;;;;5049779;28;20039;-82
2023/03/24 05:57:57;;;;;;;8.23;4.07;;;10.70;99.90;;;;;;5049905;28;20428;-78
2023/03/24 06:00:23;;;;;;;6.70;4.38;;;10.70;99.90;;;;;;5051098;28;20125;-83
2023/03/24 06:02:49;;;;;;;7.05;3.90;;;10.80;99.90;;;;;;5044988;28;20609;-80
2023/03/24 06:05:15;;;;;;;7.95;4.60;;;10.80;99.90;;;;;;5046664;28;20385;-81
2023/03/24 06:07:43;;;;;;;7.40;4.75;;;10.80;99.90;;;;;;5045143;28;20029;-79
2023/03/24 06:10:10;;;;;;;9.07;4.75;;;10.80;99.90;;;;;;5051545;28;20470;-81
2023/03/24 06:12:36;;;;;;;8.43;4.90;;;10.90;99.90;;;;;;5050646;28;20051;-81
2023/03/24 06:15:02;;;;;;;8.25;4.70;;;10.90;99.90;;;;;;5049925;28;20473;-82
2023/03/24 06:17:29;;;;;;;10.68;4.90;;;10.90;99.90;;;;;;5052106;28;20027;-80
2023/03/24 06:20:02;;;;;;;9.07;5.28;;;11.00;99.90;;;;;;5051516;28;20045;-80
2023/03/24 06:22:30;;;;;;;9.27;5.50;;;11.00;99.90;;;;;;5051213;28;20436;-82
2023/03/24 06:24:57;;;;;;;8.75;4.57;;;11.00;99.90;;;;;;5050328;28;20025;-82
2023/03/24 06:27:28;;;;;;;8.88;5.07;;;11.10;99.90;;;;;;5053302;28;20083;-81
2023/03/24 06:29:55;;;;;;;7.95;4.60;;;11.10;99.90;;;;;;5050659;28;20437;-81
2023/03/24 06:32:20;;;;;;;9.98;5.15;;;11.10;99.90;;;;;;5047851;28;20029;-74
2023/03/24 06:34:46;;;;;;;10.68;5.65;;;11.10;99.90;;;;;;5050922;28;20048;-78
2023/03/24 06:37:12;;;;;;;7.43;5.13;;;11.10;99.90;;;;;;5047900;28;20078;-80
2023/03/24 06:39:38;;;;;;;7.60;4.70;;;11.10;99.90;;;;;;5046987;28;20059;-76
2023/03/24 06:42:03;;;;;;;9.77;5.28;;;11.10;99.90;;;;;;5051399;28;20124;-81
2023/03/24 06:44:29;;;;;;;8.35;4.70;;;11.20;99.90;;;;;;5048985;28;20124;-75
2023/03/24 06:46:55;;;;;;;6.63;4.97;;;11.20;99.90;;;;;;5062838;28;20037;-77
2023/03/24 06:49:20;;;;;;;8.52;5.03;;;11.30;99.90;;;;;;5060621;28;20044;-76
2023/03/24 06:51:46;;;;;;;8.27;5.43;;;11.30;99.90;;;;;;5061832;28;20041;-77
2023/03/24 06:54:11;;;;;;;7.50;4.30;;;11.30;99.60;;;;;;5054842;28;20048;-80
2023/03/24 06:56:37;;;;;;;7.15;4.32;;;11.40;99.40;;;;;;5052047;28;20040;-79
2023/03/24 06:59:03;;;;;;;7.38;4.15;;;11.30;99.50;;;;;;5052957;28;20036;-74
2023/03/24 07:01:28;;;;;;;6.07;4.03;;;11.30;99.50;;;;;;5052894;28;20037;-80
2023/03/24 07:03:54;;;;;;;6.88;3.30;;;11.30;99.30;;;;;;5053649;28;20463;-79
2023/03/24 07:06:21;;;;;;;4.75;3.17;;;11.30;97.80;;;;;;5047300;28;20446;-78
2023/03/24 07:08:47;;;;;;;6.53;2.72;;;11.40;97.60;;;;;;5034092;28;20361;-79
2023/03/24 07:11:13;;;;;;;3.58;1.90;;;11.30;97.00;;;;;;5052369;28;20041;-80
2023/03/24 07:13:38;;;;;;;3.28;1.90;;;11.20;96.50;;;;;;5051216;28;20082;-79
2023/03/24 07:16:05;;;;;;;3.45;2.08;;;11.20;96.50;;;;;;5053525;28;20504;-80
2023/03/24 07:18:30;;;;;;;3.30;1.83;;;11.10;96.70;;;;;;5051088;28;20041;-76
2023/03/24 07:20:56;;;;;;;3.05;1.67;;;11.20;96.90;;;;;;5052957;28;20033;-80
2023/03/24 07:23:21;;;;;;;4.15;2.05;;;11.20;97.10;;;;;;5049288;28;20037;-80
2023/03/24 07:25:47;;;;;;;3.15;2.00;;;11.20;96.80;;;;;;5053167;28;20052;-80
2023/03/24 07:28:12;;;;;;;9.10;2.28;;;11.40;96.70;;;;;;5052769;28;20143;-79
2023/03/24 07:30:38;;;;;;;4.78;1.63;;;11.40;96.40;;;;;;5052274;28;20439;-80
2023/03/24 07:33:06;;;;;;;5.72;1.55;;;11.40;95.30;;;;;;5052604;28;20469;-73
2023/03/24 07:35:32;;;;;;;4.88;1.77;;;11.30;95.10;;;;;;5051663;28;20029;-78
2023/03/24 07:37:58;;;;;;;4.20;0.93;;;11.20;94.50;;;;;;5037352;28;20044;-79
2023/03/24 07:40:24;;;;;;;3.03;0.93;;;11.10;91.10;;;;;;5048823;28;20493;-80
2023/03/24 07:42:50;;;;;;;5.32;1.35;;;11.20;90.70;;;;;;5054095;28;20033;-79
2023/03/24 07:45:16;;;;;;;4.68;1.00;;;11.20;89.80;;;;;;5041683;28;20030;-79
2023/03/24 07:47:43;;;;;;;3.55;1.00;;;11.20;90.20;;;;;;5046877;28;20108;-78
2023/03/24 07:50:10;;;;;;;3.72;1.10;;;11.20;90.20;;;;;;5046343;28;20060;-80
2023/03/24 07:52:37;;;;;;;4.53;1.20;;;11.20;92.20;;;;;;5058242;28;20025;-80
2023/03/24 07:55:03;;;;;;;1.98;0.90;;;11.40;91.80;;;;;;5052165;28;20477;-77
2023/03/24 07:57:29;;;;;;;5.78;1.33;;;11.30;90.40;;;;;;5046036;28;20488;-76
2023/03/24 07:59:55;;;;;;;2.92;0.90;;;11.30;90.40;;;;;;5051871;28;20091;-77
2023/03/24 08:02:20;;;;;;;4.45;1.15;;;11.30;90.10;;;;;;5053260;28;20032;-74
2023/03/24 08:04:52;;;;;;;3.08;0.95;;;11.20;90.00;;;;;;5049105;28;20033;-77
2023/03/24 08:07:18;;;;;;;3.25;0.90;;;11.30;89.90;;;;;;5045689;28;20040;-77
2023/03/24 08:09:44;;;;;;;5.45;1.30;;;11.40;90.00;;;;;;5044796;28;20032;-76
2023/03/24 08:12:09;;;;;;;3.33;0.95;;;11.30;89.30;;;;;;5054137;28;20111;-77
2023/03/24 08:14:35;;;;;;;3.65;1.23;;;11.30;88.20;;;;;;5046863;28;20082;-76
2023/03/24 08:17:01;;;;;;;4.68;1.30;;;11.20;89.10;;;;;;5048584;28;20049;-74
2023/03/24 08:19:26;;;;;;;6.20;1.30;;;11.30;88.40;;;;;;5049087;28;20478;-75
2023/03/24 08:21:52;;;;;;;3.85;1.52;;;11.50;88.70;;;;;;5051450;28;20041;-77
2023/03/24 08:24:18;;;;;;;4.68;1.30;;;11.50;87.90;;;;;;5052364;28;20169;-77
2023/03/24 08:26:45;;;;;;;4.90;0.98;;;11.70;88.50;;;;;;5054718;28;20058;-77
2023/03/24 08:29:11;;;;;;;5.65;1.10;;;11.50;88.30;;;;;;5046459;28;20057;-77
2023/03/24 08:31:36;;;;;;;2.00;1.10;;;11.50;86.80;;;;;;5049920;28;20118;-79
2023/03/24 08:34:05;;;;;;;4.22;1.23;;;11.70;87.10;;;;;;5051345;28;20033;-79
2023/03/24 08:36:31;;;;;;;5.53;1.20;;;11.80;87.00;;;;;;5049587;28;20389;-77
2023/03/24 08:38:57;;;;;;;6.55;1.55;;;11.70;85.90;;;;;;5049004;28;20033;-81
2023/03/24 08:41:35;;;;;;;7.32;1.40;;;11.60;85.50;;;;;;5051533;28;20028;-80
2023/03/24 08:44:04;;;;;;;6.65;1.42;;;11.50;84.90;;;;;;5065441;28;20013;-74
2023/03/24 08:46:33;;;;;;;4.53;1.20;;;11.50;85.30;;;;;;5064744;28;20036;-77
2023/03/24 08:48:59;;;;;;;9.32;1.50;;;11.40;84.20;;;;;;5054591;28;20029;-77
2023/03/24 08:51:26;;;;;;;6.03;1.20;;;11.30;84.10;;;;;;5051561;28;20036;-74
2023/03/24 08:53:52;;;;;;;5.82;1.30;;;11.30;84.50;;;;;;5050732;28;20041;-74
2023/03/24 08:56:18;;;;;;;7.72;1.60;;;11.30;84.80;;;;;;5038398;28;20028;-75
2023/03/24 08:58:49;;;;;;;7.60;1.40;;;11.30;85.90;;;;;;5041331;28;20040;-75
2023/03/24 09:01:16;;;;;;;;;;;11.30;85.90;;;;;;5047407;28;20630;-74
2023/03/24 09:03:43;;;;;;;8.18;1.77;;;11.50;85.30;;;;;;5048082;28;20258;-75
2023/03/24 09:06:10;;;;;;;8.18;1.83;;;11.80;84.60;;;;;;5044581;28;20072;-74
2023/03/24 09:08:35;;;;;;;5.88;1.23;;;11.90;82.30;;;;;;5020063;28;20030;-75
2023/03/24 09:11:01;;;;;;;7.28;1.40;;;12.00;82.50;;;;;;5045717;28;20040;-75
2023/03/24 09:13:26;;;;;;;10.02;1.55;;;12.20;81.50;;;;;;5048471;28;20064;-75
2023/03/24 09:15:57;;;;;;;7.93;1.60;;;12.20;81.30;;;;;;5056139;28;20081;-76
2023/03/24 09:18:23;;;;;;;10.27;1.40;;;12.30;81.20;;;;;;5050546;28;20077;-76
2023/03/24 09:20:49;;;;;;;7.35;1.45;;;12.10;80.20;;;;;;5053987;28;20036;-75
2023/03/24 09:23:14;;;;;;;7.90;1.75;;;12.10;81.20;;;;;;5051913;28;20037;-74
2023/03/24 09:25:40;;;;;;;8.02;1.40;;;11.90;80.40;;;;;;5054846;28;20102;-75
2023/03/24 09:28:07;;;;;;;10.18;1.38;;;12.00;79.90;;;;;;5054600;28;20021;-76
2023/03/24 09:30:33;;;;;;;8.13;1.77;;;12.10;80.40;;;;;;5049455;28;20123;-73
2023/03/24 09:32:58;;;;;;;5.80;1.23;;;12.10;80.60;;;;;;5052748;28;20398;-73
2023/03/24 09:35:26;;;;;;;6.97;1.52;;;12.40;81.30;;;;;;5049639;28;20378;-73
2023/03/24 09:37:52;;;;;;;10.65;1.63;;;12.50;80.40;;;;;;5053763;28;20472;-72
2023/03/24 09:40:22;;;;;;;8.35;1.52;;;12.90;79.60;;;;;;5044084;28;20025;-72
2023/03/24 09:42:54;;;;;;;8.52;1.60;;;13.00;76.90;;;;;;5050378;28;20450;-73
2023/03/24 09:45:21;;;;;;;8.98;1.73;;;12.90;78.20;;;;;;5048901;28;20025;-72
2023/03/24 09:47:53;;;;;;;5.72;1.67;;;12.80;75.80;;;;;;5043956;28;20037;-73
2023/03/24 09:50:24;;;;;;;8.73;1.33;;;12.50;76.20;;;;;;5052283;28;20032;-73
2023/03/24 09:52:53;;;;;;;10.65;1.30;;;12.40;77.30;;;;;;5052073;28;20025;-74
2023/03/24 09:55:24;;;;;;;5.25;1.50;;;12.50;76.30;;;;;;5047231;28;20393;-73
2023/03/24 09:57:51;;;;;;;8.52;1.60;;;12.60;77.40;;;;;;5036404;28;20055;-73
2023/03/24 10:00:21;;;;;;;9.63;1.90;;;12.60;78.00;;;;;;5043990;28;20490;-73
2023/03/24 10:02:49;;;;;;;7.93;1.60;;;12.60;78.50;;;;;;5054176;28;20033;-73
2023/03/24 10:05:18;;;;;;;5.95;1.40;;;12.50;78.10;;;;;;5048459;28;20081;-73
2023/03/24 10:07:56;;;;;;;8.82;1.60;;;12.50;78.70;;;;;;5045806;28;20033;-72
2023/03/24 10:10:42;;;;;;;6.05;1.40;;;12.50;77.40;;;;;;5052433;28;20492;-73
2023/03/24 10:13:20;;;;;;;8.40;1.48;;;12.70;77.20;;;;;;5052894;28;20081;-72
2023/03/24 10:16:00;;;;;;;6.22;1.10;;;13.00;76.40;;;;;;5052249;28;20427;-72
2023/03/24 10:18:35;;;;;;;6.20;1.58;;;12.60;75.00;;;;;;5052365;28;20547;-73
2023/03/24 10:21:18;;;;;;;5.95;1.40;;;13.00;76.50;;;;;;5023067;28;20037;-73
2023/03/24 10:24:18;;;;;;;8.10;1.23;;;13.20;74.90;;;;;;5039713;28;20513;-72
2023/03/24 10:26:58;;;;;;;4.35;1.23;;;13.50;73.10;;;;;;5053107;28;20025;-73
2023/03/24 10:29:29;;;;;;;6.97;1.48;;;13.70;72.40;;;;;;5052087;28;20059;-72
2023/03/24 10:32:02;;;;;;;5.18;1.30;;;13.50;72.20;;;;;;5051015;28;20041;-74
2023/03/24 10:34:31;;;;;;;10.30;1.35;;;13.60;71.10;;;;;;5052235;28;20025;-72
2023/03/24 10:37:00;;;;;;;8.55;1.33;;;14.10;71.80;;;;;;5042501;28;20438;-72
2023/03/24 10:39:25;;;;;;;6.72;1.25;;;14.20;71.10;;;;;;5045236;28;20119;-72
2023/03/24 10:41:53;;;;;;;6.68;1.48;;;14.30;69.70;;;;;;5041119;28;20526;-73
2023/03/24 10:44:20;;;;;;;7.00;1.35;;;14.00;69.10;;;;;;5051104;28;20032;-72
2023/03/24 10:46:49;;;;;;;8.73;1.35;;;13.60;69.60;;;;;;5048433;28;20035;-72
2023/03/24 10:49:18;;;;;;;6.13;1.27;;;13.20;70.80;;;;;;5046614;28;20033;-73
2023/03/24 10:51:50;;;;;;;5.38;1.42;;;13.00;73.30;;;;;;5049731;28;20516;-72
2023/03/24 10:54:17;;;;;;;8.57;1.17;;;12.80;73.90;;;;;;5051825;28;20115;-73
2023/03/24 10:57:02;;;;;;;12.82;1.83;;;13.10;73.60;;;;;;5051834;28;20060;-73
2023/03/24 10:59:38;;;;;;;8.80;1.63;;;13.50;72.20;;;;;;5040346;28;20029;-73
2023/03/24 11:02:20;;;;;;;8.82;1.77;;;13.80;72.50;;;;;;5039942;28;20037;-73
2023/03/24 11:05:11;;;;;;;9.68;1.75;;;13.50;72.60;;;;;;5049585;28;20024;-73
2023/03/24 11:07:40;;;;;;;7.07;1.70;;;13.20;72.50;;;;;;5044222;28;20037;-72
2023/03/24 11:10:17;;;;;;;4.32;0.90;;;12.90;72.40;;;;;;5050585;28;20037;-72
2023/03/24 11:13:02;;;;;;;9.00;1.42;;;12.60;72.60;;;;;;5051742;28;20028;-72
2023/03/24 11:15:31;;;;;;;8.80;1.38;;;12.60;73.00;;;;;;5050652;28;20479;-73
2023/03/24 11:18:13;;;;;;;6.72;1.63;;;12.80;74.30;;;;;;5038628;28;20455;-73
2023/03/24 11:20:43;;;;;;;4.78;1.50;;;12.70;74.20;;;;;;5051132;28;20068;-72
2023/03/24 11:23:19;;;;;;;8.77;1.85;;;12.80;74.60;;;;;;5042722;28;20032;-72
2023/03/24 11:25:52;;;;;;;14.73;2.60;;;12.60;74.80;;;;;;5047560;28;20663;-73
2023/03/24 11:28:24;;;;;;;7.72;1.52;;;13.10;73.10;;;;;;5049071;28;20099;-72
2023/03/24 11:30:52;;;;;;;10.60;1.88;;;13.80;72.40;;;;;;5050588;28;20017;-73
2023/03/24 11:33:27;;;;;;;7.43;1.50;;;14.50;70.90;;;;;;5032834;28;20044;-73
2023/03/24 11:35:52;;;;;;;12.75;1.80;;;14.30;68.40;;;;;;5040812;28;20078;-73
2023/03/24 11:38:27;;;;;;;6.18;1.30;;;14.20;68.30;;;;;;5044851;28;20029;-73
2023/03/24 11:40:58;;;;;;;13.15;2.03;;;14.50;68.00;;;;;;5038404;28;20101;-73
2023/03/24 11:43:25;;;;;;;;;;;14.10;66.80;;;;;;5052587;28;20032;-72
2023/03/24 11:46:08;;;;;;;7.18;1.80;;;13.70;68.60;;;;;;5051135;28;19908;-72
2023/03/24 11:48:47;;;;;;;8.38;1.90;;;14.00;68.50;;;;;;5050165;28;20181;-73
2023/03/24 11:51:18;;;;;;;7.05;1.55;;;13.50;68.70;;;;;;5048962;28;20099;-73
2023/03/24 11:53:52;;;;;;;9.20;1.83;;;13.20;70.20;;;;;;5049799;28;20078;-72
2023/03/24 11:56:42;;;;;;;7.20;2.00;;;13.10;69.70;;;;;;5038797;28;20421;-73
2023/03/24 11:59:07;;;;;;;7.80;1.50;;;12.90;70.40;;;;;;5049694;28;20029;-72
2023/03/24 12:01:41;;;;;;;10.63;1.90;;;13.70;68.50;;;;;;5050002;28;20114;-72
2023/03/24 12:04:33;;;;;;;10.40;2.00;;;13.80;68.10;;;;;;5049872;28;20063;-73
2023/03/24 12:07:17;;;;;;;6.65;1.92;;;14.00;68.30;;;;;;5041625;28;20115;-73
2023/03/24 12:09:59;;;;;;;9.65;1.60;;;14.00;68.30;;;;;;5049863;28;20036;-73
2023/03/24 12:12:36;;;;;;;9.02;1.80;;;13.90;68.40;;;;;;5051377;28;20480;-72
2023/03/24 12:15:30;;;;;;;12.48;2.30;;;13.80;66.70;;;;;;5050937;28;20049;-73
2023/03/24 12:18:14;;;;;;;11.77;2.00;;;14.20;65.90;;;;;;5050357;28;20031;-73
2023/03/24 12:20:58;;;;;;;10.13;2.20;;;14.20;66.30;;;;;;5040461;28;20049;-73
2023/03/24 12:23:45;;;;;;;13.32;2.20;;;14.30;67.40;;;;;;5012987;28;20095;-73
2023/03/24 12:26:16;;;;;;;13.25;2.40;;;15.30;65.20;;;;;;5049927;28;20434;-73
2023/03/24 12:28:57;;;;;;;8.43;1.95;;;15.90;65.20;;;;;;5048770;28;20351;-73
2023/03/24 12:31:35;;;;;;;;;;;15.80;65.60;;;;;;5044243;28;20088;-73
2023/03/24 12:34:22;;;;;;;11.35;2.72;;;14.90;66.40;;;;;;5034604;28;19912;-72
2023/03/24 12:37:09;;;;;;;8.95;1.70;;;14.70;67.20;;;;;;5042903;28;20420;-73
2023/03/24 12:39:50;;;;;;;11.00;2.03;;;14.20;65.00;;;;;;5047736;28;20108;-73
2023/03/24 12:42:17;;;;;;;8.07;2.05;;;14.10;65.10;;;;;;5050476;28;20552;-73
2023/03/24 12:44:49;;;;;;;7.95;1.92;;;14.60;62.70;;;;;;5050285;28;20381;-72
2023/03/24 12:47:36;;;;;;;9.18;1.92;;;14.10;64.60;;;;;;5048843;28;20440;-73
2023/03/24 12:50:18;;;;;;;10.40;1.90;;;13.70;65.50;;;;;;5048710;28;20029;-72
2023/03/24 12:53:06;;;;;;;9.73;1.75;;;14.60;63.00;;;;;;5047259;28;20047;-73
2023/03/24 12:55:49;;;;;;;7.88;1.63;;;15.10;59.60;;;;;;5048649;28;20033;-73
2023/03/24 12:58:40;;;;;;;9.80;1.88;;;15.90;57.50;;;;;;5049659;28;20044;-73
2023/03/24 13:01:09;;;;;;;7.65;2.03;;;16.30;55.50;;;;;;5047187;28;20029;-73
2023/03/24 13:03:52;;;;;;;5.75;1.45;;;16.20;55.60;;;;;;5048563;28;20148;-73
2023/03/24 13:06:33;;;;;;;7.30;1.48;;;15.80;54.00;;;;;;5040766;28;20395;-72
2023/03/24 13:09:38;;;;;;;7.88;1.40;;;16.00;49.70;;;;;;5050019;28;20112;-73
2023/03/24 13:12:18;;;;;;;6.45;1.20;;;16.00;48.80;;;;;;5048414;28;20024;-73